createdAt,value
2022-10-12T00:00:51.015Z,25.40
2022-10-12T00:03:20.285Z,25.40
2022-10-12T00:05:48.727Z,25.40
2022-10-12T00:08:16.787Z,25.30
2022-10-12T00:10:45.400Z,25.30
2022-10-12T00:13:13.636Z,25.30
2022-10-12T00:15:41.943Z,25.20
2022-10-12T00:18:10.169Z,25.20
2022-10-12T00:20:38.557Z,25.30
2022-10-12T00:23:06.787Z,25.20
2022-10-12T00:25:40.589Z,25.20
2022-10-12T00:28:09.060Z,25.20
2022-10-12T00:30:40.725Z,25.20
2022-10-12T00:33:08.858Z,25.10
2022-10-12T00:35:37.085Z,25.10
2022-10-12T00:38:05.098Z,25.10
2022-10-12T00:40:33.365Z,25.10
2022-10-12T00:43:01.575Z,25.10
2022-10-12T00:45:30.334Z,25.10
2022-10-12T00:48:00.448Z,25.10
2022-10-12T00:50:34.674Z,25.10
2022-10-12T00:53:16.615Z,25.10
2022-10-12T00:55:50.701Z,25.10
2022-10-12T00:58:19.841Z,25.20
2022-10-12T01:00:48.341Z,25.10
2022-10-12T01:03:20.472Z,25.10
2022-10-12T01:05:49.104Z,25.10
2022-10-12T01:08:17.289Z,25.20
2022-10-12T01:10:45.461Z,25.10
2022-10-12T01:13:13.865Z,25.10
2022-10-12T01:15:50.127Z,25.10
2022-10-12T01:18:31.571Z,25.10
2022-10-12T01:21:20.276Z,25.10
2022-10-12T01:24:06.384Z,25.00
2022-10-12T01:27:06.798Z,25.00
2022-10-12T01:30:12.139Z,25.00
2022-10-12T01:33:04.955Z,25.00
2022-10-12T01:35:53.130Z,25.00
2022-10-12T01:38:45.409Z,24.90
2022-10-12T01:41:16.246Z,24.90
2022-10-12T01:43:45.717Z,24.90
2022-10-12T01:46:13.906Z,24.90
2022-10-12T01:48:43.435Z,24.90
2022-10-12T01:51:16.948Z,24.90
2022-10-12T01:54:16.187Z,24.90
2022-10-12T01:57:13.829Z,24.90
2022-10-12T02:00:08.218Z,24.90
2022-10-12T02:02:45.219Z,24.90
2022-10-12T02:05:27.458Z,24.90
2022-10-12T02:08:18.491Z,24.90
2022-10-12T02:11:16.732Z,24.80
2022-10-12T02:14:08.013Z,24.80
2022-10-12T02:16:42.967Z,24.80
2022-10-12T02:19:14.660Z,24.80
2022-10-12T02:21:44.118Z,24.80
2022-10-12T02:24:13.072Z,24.80
2022-10-12T02:26:45.327Z,24.80
2022-10-12T02:29:22.370Z,24.70
2022-10-12T02:31:53.446Z,24.70
2022-10-12T02:34:46.108Z,24.70
2022-10-12T02:37:39.309Z,24.70
2022-10-12T02:40:39.776Z,24.70
2022-10-12T02:43:28.208Z,24.70
2022-10-12T02:45:59.112Z,24.70
2022-10-12T02:48:29.604Z,24.70
2022-10-12T02:50:59.465Z,24.70
2022-10-12T02:53:30.392Z,24.70
2022-10-12T02:56:13.487Z,24.70
2022-10-12T02:58:45.017Z,24.70
2022-10-12T03:01:14.284Z,24.80
2022-10-12T03:03:42.372Z,24.70
2022-10-12T03:06:10.719Z,24.70
2022-10-12T03:08:38.935Z,24.70
2022-10-12T03:11:09.829Z,24.70
2022-10-12T03:13:38.292Z,24.70
2022-10-12T03:16:10.534Z,24.70
2022-10-12T03:18:39.058Z,24.70
2022-10-12T03:21:07.278Z,24.70
2022-10-12T03:23:35.533Z,24.70
2022-10-12T03:26:03.992Z,24.70
2022-10-12T03:28:32.784Z,24.70
2022-10-12T03:31:01.235Z,24.70
2022-10-12T03:33:29.386Z,24.70
2022-10-12T03:35:57.563Z,24.80
2022-10-12T03:38:25.792Z,24.70
2022-10-12T03:40:54.079Z,24.80
2022-10-12T03:43:22.327Z,24.80
2022-10-12T03:45:50.501Z,24.80
2022-10-12T03:48:19.152Z,24.80
2022-10-12T03:50:51.768Z,24.80
2022-10-12T03:53:20.853Z,24.80
2022-10-12T03:55:49.057Z,24.70
2022-10-12T03:58:17.090Z,24.70
2022-10-12T04:00:45.509Z,24.80
2022-10-12T04:03:13.617Z,24.80
2022-10-12T04:05:41.888Z,24.80
2022-10-12T04:08:10.030Z,24.70
2022-10-12T04:10:38.045Z,24.80
2022-10-12T04:13:06.249Z,24.80
2022-10-12T04:15:34.464Z,24.70
2022-10-12T04:18:02.505Z,24.70
2022-10-12T04:20:30.617Z,24.70
2022-10-12T04:22:58.773Z,24.70
2022-10-12T04:25:30.068Z,24.70
2022-10-12T04:27:58.669Z,24.70
2022-10-12T04:30:26.689Z,24.70
2022-10-12T04:32:54.808Z,24.70
2022-10-12T04:35:23.090Z,24.70
2022-10-12T04:37:51.273Z,24.70
2022-10-12T04:40:19.507Z,24.80
2022-10-12T04:42:47.770Z,24.70
2022-10-12T04:45:16.115Z,24.70
2022-10-12T04:47:44.339Z,24.70
2022-10-12T04:50:12.346Z,24.70
2022-10-12T04:52:40.709Z,24.70
2022-10-12T04:55:09.283Z,24.70
2022-10-12T04:57:37.744Z,24.70
2022-10-12T05:00:08.075Z,24.60
2022-10-12T05:02:36.206Z,24.70
2022-10-12T05:05:04.570Z,24.60
2022-10-12T05:07:32.665Z,24.60
2022-10-12T05:10:00.869Z,24.60
2022-10-12T05:12:29.081Z,24.60
2022-10-12T05:14:57.182Z,24.60
2022-10-12T05:17:25.408Z,24.60
2022-10-12T05:19:53.458Z,24.50
2022-10-12T05:22:21.694Z,24.50
2022-10-12T05:24:53.606Z,24.50
2022-10-12T05:27:22.207Z,24.50
2022-10-12T05:29:50.327Z,24.50
2022-10-12T05:32:18.553Z,24.50
2022-10-12T05:34:46.635Z,24.50
2022-10-12T05:37:14.747Z,24.50
2022-10-12T05:39:43.037Z,24.60
2022-10-12T05:42:11.052Z,24.50
2022-10-12T05:44:39.254Z,24.50
2022-10-12T05:47:07.430Z,24.50
2022-10-12T05:49:35.704Z,24.40
2022-10-12T05:52:03.909Z,24.40
2022-10-12T05:54:32.126Z,24.40
2022-10-12T05:57:00.343Z,24.40
2022-10-12T05:59:28.495Z,24.50
2022-10-12T06:01:56.690Z,24.40
2022-10-12T06:04:24.857Z,24.40
2022-10-12T06:06:53.116Z,24.40
2022-10-12T06:09:21.256Z,24.50
2022-10-12T06:11:49.371Z,24.50
2022-10-12T06:14:17.667Z,24.50
2022-10-12T06:16:45.796Z,24.50
2022-10-12T06:19:13.996Z,24.50
2022-10-12T06:21:42.308Z,24.50
2022-10-12T06:24:10.368Z,24.40
2022-10-12T06:26:38.591Z,24.40
2022-10-12T06:29:06.781Z,24.40
2022-10-12T06:31:34.924Z,24.40
2022-10-12T06:34:03.094Z,24.40
2022-10-12T06:36:31.273Z,24.40
2022-10-12T06:38:59.486Z,24.50
2022-10-12T06:41:27.687Z,24.50
2022-10-12T06:43:55.918Z,24.50
2022-10-12T06:46:24.019Z,24.50
2022-10-12T06:48:52.331Z,24.50
2022-10-12T06:51:20.389Z,24.50
2022-10-12T06:53:48.648Z,24.50
2022-10-12T06:56:16.818Z,24.50
2022-10-12T06:58:45.043Z,24.50
2022-10-12T07:01:13.198Z,24.50
2022-10-12T07:03:41.462Z,24.50
2022-10-12T07:06:10.641Z,24.50
2022-10-12T07:08:39.370Z,24.60
2022-10-12T07:11:09.443Z,24.60
2022-10-12T07:13:37.799Z,24.60
2022-10-12T07:16:06.157Z,24.60
2022-10-12T07:18:34.402Z,24.70
2022-10-12T07:21:02.767Z,24.70
2022-10-12T07:23:32.775Z,24.70
2022-10-12T07:26:01.696Z,24.70
2022-10-12T07:28:29.943Z,24.70
2022-10-12T07:31:07.025Z,24.80
2022-10-12T07:33:36.407Z,24.80
2022-10-12T07:36:22.015Z,24.80
2022-10-12T07:38:50.861Z,24.80
2022-10-12T07:41:19.040Z,24.80
2022-10-12T07:43:47.568Z,24.80
2022-10-12T07:46:15.883Z,24.80
2022-10-12T07:48:49.764Z,24.80
2022-10-12T07:51:18.956Z,24.90
2022-10-12T07:53:47.001Z,25.00
2022-10-12T07:56:15.686Z,25.00
2022-10-12T07:58:49.288Z,25.00
2022-10-12T08:01:19.279Z,25.10
2022-10-12T08:03:48.458Z,25.10
2022-10-12T08:06:20.662Z,25.20
2022-10-12T08:08:49.343Z,25.30
2022-10-12T08:11:19.362Z,25.30
2022-10-12T08:13:47.970Z,25.30
2022-10-12T08:16:19.968Z,25.30
2022-10-12T08:18:48.593Z,25.40
2022-10-12T08:21:17.686Z,25.40
2022-10-12T08:23:46.478Z,25.50
2022-10-12T08:26:16.159Z,25.60
2022-10-12T08:28:45.014Z,25.60
2022-10-12T08:31:15.699Z,25.80
2022-10-12T08:33:44.320Z,25.80
2022-10-12T08:36:13.406Z,25.90
2022-10-12T08:38:41.752Z,25.90
2022-10-12T08:41:43.548Z,26.00
2022-10-12T08:44:51.849Z,26.00
2022-10-12T08:47:33.581Z,26.00
2022-10-12T08:50:05.368Z,26.10
2022-10-12T08:52:42.179Z,26.20
2022-10-12T08:55:33.591Z,26.10
2022-10-12T08:58:02.523Z,26.20
2022-10-12T09:03:33.390Z,26.30
2022-10-12T09:06:10.736Z,26.40
2022-10-12T09:08:48.180Z,26.50
2022-10-12T09:11:41.128Z,26.50
2022-10-12T09:14:20.042Z,26.50
2022-10-12T09:16:50.482Z,26.50
2022-10-12T09:19:23.231Z,26.50
2022-10-12T09:21:51.861Z,26.50
2022-10-12T09:24:32.170Z,26.50
2022-10-12T09:27:06.822Z,26.50
2022-10-12T09:29:35.252Z,26.40
2022-10-12T09:32:21.739Z,26.40
2022-10-12T09:34:50.513Z,26.40
2022-10-12T09:37:37.123Z,26.40
2022-10-12T09:40:05.997Z,26.40
2022-10-12T09:42:37.983Z,26.40
2022-10-12T09:45:17.494Z,26.40
2022-10-12T09:48:09.915Z,26.40
2022-10-12T09:50:50.000Z,26.40
2022-10-12T09:53:29.829Z,26.30
2022-10-12T09:56:11.860Z,26.30
2022-10-12T09:58:52.047Z,26.30
2022-10-12T10:01:22.536Z,26.30
2022-10-12T10:04:07.481Z,26.30
2022-10-12T10:06:40.997Z,26.30
2022-10-12T10:09:36.642Z,26.20
2022-10-12T10:12:24.487Z,26.20
2022-10-12T10:14:54.961Z,26.20
2022-10-12T10:17:29.152Z,26.20
2022-10-12T10:19:58.953Z,26.20
2022-10-12T10:22:27.754Z,26.20
2022-10-12T10:25:00.516Z,26.30
2022-10-12T10:27:34.099Z,26.20
2022-10-12T10:30:35.089Z,26.20
2022-10-12T10:33:19.124Z,26.20
2022-10-12T10:35:56.290Z,26.30
2022-10-12T10:38:24.660Z,26.30
2022-10-12T10:40:55.024Z,26.30
2022-10-12T10:43:31.607Z,26.40
2022-10-12T10:46:02.967Z,26.40
2022-10-12T10:48:38.592Z,26.40
2022-10-12T10:51:08.160Z,26.40
2022-10-12T10:53:48.694Z,26.50
2022-10-12T10:56:29.299Z,26.60
2022-10-12T10:59:09.042Z,26.60
2022-10-12T11:02:03.240Z,26.60
2022-10-12T11:04:41.818Z,26.60
2022-10-12T11:07:28.562Z,26.60
2022-10-12T11:09:59.878Z,26.70
2022-10-12T11:12:32.551Z,26.70
2022-10-12T11:15:21.175Z,26.80
2022-10-12T11:17:55.286Z,26.80
2022-10-12T11:20:46.591Z,26.80
2022-10-12T11:23:24.025Z,26.90
2022-10-12T11:26:05.759Z,26.90
2022-10-12T11:28:35.226Z,26.90
2022-10-12T11:31:05.480Z,26.90
2022-10-12T11:33:40.429Z,26.90
2022-10-12T11:36:16.244Z,26.90
2022-10-12T11:38:57.152Z,26.90
2022-10-12T11:42:09.770Z,27.00
2022-10-12T11:44:48.298Z,27.00
2022-10-12T11:47:37.541Z,27.10
2022-10-12T11:50:41.849Z,27.10
2022-10-12T11:53:26.341Z,27.10
2022-10-12T11:55:54.591Z,27.20
2022-10-12T11:58:55.932Z,27.20
2022-10-12T12:01:47.438Z,27.20
2022-10-12T12:04:41.047Z,27.20
2022-10-12T12:07:37.373Z,27.20
2022-10-12T12:10:24.186Z,27.30
2022-10-12T12:13:10.880Z,27.30
2022-10-12T12:15:41.023Z,27.30
2022-10-12T12:18:19.465Z,27.30
2022-10-12T12:20:47.807Z,27.20
2022-10-12T12:23:40.648Z,27.30
2022-10-12T12:26:16.615Z,27.30
2022-10-12T12:28:53.613Z,27.30
2022-10-12T12:31:24.903Z,27.40
2022-10-12T12:34:13.003Z,27.40
2022-10-12T12:36:47.574Z,27.40
2022-10-12T12:39:35.432Z,27.40
2022-10-12T12:42:09.075Z,27.40
2022-10-12T12:44:40.788Z,27.50
2022-10-12T12:47:43.875Z,27.50
2022-10-12T12:50:32.198Z,27.50
2022-10-12T12:53:14.752Z,27.70
2022-10-12T12:56:16.505Z,27.70
2022-10-12T12:58:47.829Z,27.80
2022-10-12T13:01:36.894Z,27.80
2022-10-12T13:04:46.870Z,27.90
2022-10-12T13:07:49.183Z,27.90
2022-10-12T13:10:41.788Z,28.00
2022-10-12T13:13:23.664Z,28.10
2022-10-12T13:16:03.988Z,28.10
2022-10-12T13:18:48.863Z,28.20
2022-10-12T13:21:22.300Z,28.20
2022-10-12T13:23:57.424Z,28.20
2022-10-12T13:26:28.843Z,28.30
2022-10-12T13:29:00.329Z,28.20
2022-10-12T13:31:47.606Z,28.30
2022-10-12T13:34:25.649Z,28.30
2022-10-12T13:37:00.886Z,28.40
2022-10-12T13:39:33.086Z,28.30
2022-10-12T13:42:03.832Z,28.30
2022-10-12T13:44:35.723Z,28.30
2022-10-12T13:47:24.594Z,28.20
2022-10-12T13:49:53.410Z,28.20
2022-10-12T13:52:31.064Z,28.10
2022-10-12T13:55:01.630Z,28.10
2022-10-12T13:57:48.242Z,28.10
2022-10-12T14:00:16.594Z,28.20
2022-10-12T14:03:01.544Z,28.30
2022-10-12T14:05:33.155Z,28.30
2022-10-12T14:08:11.161Z,28.30
2022-10-12T14:10:40.261Z,28.20
2022-10-12T14:13:14.087Z,28.20
2022-10-12T14:15:43.164Z,28.20
2022-10-12T14:18:39.660Z,28.20
2022-10-12T14:21:25.432Z,28.10
2022-10-12T14:23:54.979Z,28.10
2022-10-12T14:26:44.513Z,28.10
2022-10-12T14:29:47.519Z,28.10
2022-10-12T14:32:15.766Z,28.10
2022-10-12T14:34:46.277Z,28.00
2022-10-12T14:37:17.612Z,28.00
2022-10-12T14:39:48.693Z,28.00
2022-10-12T14:42:24.694Z,28.00
2022-10-12T14:44:53.013Z,28.00
2022-10-12T14:47:25.926Z,28.00
2022-10-12T14:49:56.622Z,27.90
2022-10-12T14:52:24.799Z,27.90
2022-10-12T14:57:31.991Z,28.00
2022-10-12T15:00:00.135Z,28.10
2022-10-12T15:02:33.316Z,28.10
2022-10-12T15:05:01.641Z,28.20
2022-10-12T15:07:34.481Z,28.20
2022-10-12T15:10:03.314Z,28.30
2022-10-12T15:12:31.612Z,28.40
2022-10-12T15:15:01.572Z,28.40
2022-10-12T15:17:29.879Z,28.40
2022-10-12T15:19:58.110Z,28.40
2022-10-12T15:22:27.606Z,28.40
2022-10-12T15:24:57.158Z,28.40
2022-10-12T15:27:25.608Z,28.40
2022-10-12T15:29:54.208Z,28.50
2022-10-12T15:32:22.383Z,28.50
2022-10-12T15:34:50.710Z,28.50
2022-10-12T15:37:19.060Z,28.60
2022-10-12T15:39:47.367Z,28.60
2022-10-12T15:42:15.587Z,28.60
2022-10-12T15:44:46.712Z,28.60
2022-10-12T15:47:15.192Z,28.50
2022-10-12T15:49:43.725Z,28.60
2022-10-12T15:52:12.202Z,28.60
2022-10-12T15:54:40.419Z,28.60
2022-10-12T15:57:08.628Z,28.60
2022-10-12T15:59:36.921Z,28.60
2022-10-12T16:02:09.867Z,28.70
2022-10-12T16:04:38.120Z,28.70
2022-10-12T16:07:06.304Z,28.70
2022-10-12T16:09:34.464Z,28.70
2022-10-12T16:12:02.697Z,28.60
2022-10-12T16:14:30.901Z,28.70
2022-10-12T16:17:00.512Z,28.70
2022-10-12T16:19:28.865Z,28.60
2022-10-12T16:21:57.053Z,28.70
2022-10-12T16:24:25.092Z,28.60
2022-10-12T16:26:53.516Z,28.60
2022-10-12T16:29:21.861Z,28.60
2022-10-12T16:31:49.948Z,28.60
2022-10-12T16:34:18.194Z,28.60
2022-10-12T16:36:46.332Z,28.70
2022-10-12T16:39:14.520Z,28.70
2022-10-12T16:41:42.685Z,28.80
2022-10-12T16:44:10.930Z,28.90
2022-10-12T16:46:39.071Z,29.00
2022-10-12T16:49:07.353Z,29.00
2022-10-12T16:51:35.503Z,28.90
2022-10-12T16:54:03.614Z,28.90
2022-10-12T16:56:33.938Z,28.90
2022-10-12T16:59:05.371Z,28.80
2022-10-12T17:01:33.740Z,28.70
2022-10-12T17:04:01.803Z,28.60
2022-10-12T17:06:30.369Z,28.60
2022-10-12T17:09:02.040Z,28.60
2022-10-12T17:11:30.270Z,28.60
2022-10-12T17:13:58.518Z,28.60
2022-10-12T17:16:26.738Z,28.50
2022-10-12T17:18:59.184Z,28.50
2022-10-12T17:21:28.485Z,28.40
2022-10-12T17:23:58.304Z,28.30
2022-10-12T17:26:27.649Z,28.20
2022-10-12T17:28:56.287Z,28.10
2022-10-12T17:31:24.426Z,28.10
2022-10-12T17:33:52.716Z,28.00
2022-10-12T17:36:24.405Z,27.90
2022-10-12T17:38:58.646Z,27.80
2022-10-12T17:41:29.210Z,27.70
2022-10-12T17:43:58.152Z,27.70
2022-10-12T17:46:26.397Z,27.70
2022-10-12T17:48:54.611Z,27.60
2022-10-12T17:51:23.259Z,27.60
2022-10-12T17:53:51.478Z,27.50
2022-10-12T17:56:19.642Z,27.40
2022-10-12T17:58:47.884Z,27.40
2022-10-12T18:01:17.322Z,27.40
2022-10-12T18:03:45.706Z,27.40
2022-10-12T18:06:16.825Z,27.30
2022-10-12T18:08:45.597Z,27.30
2022-10-12T18:11:14.491Z,27.30
2022-10-12T18:13:49.501Z,27.20
2022-10-12T18:16:21.290Z,27.10
2022-10-12T18:18:49.831Z,27.10
2022-10-12T18:21:20.085Z,27.00
2022-10-12T18:23:48.960Z,27.00
2022-10-12T18:26:18.104Z,26.90
2022-10-12T18:28:47.799Z,26.90
2022-10-12T18:31:27.070Z,26.80
2022-10-12T18:33:56.970Z,26.80
2022-10-12T18:36:26.039Z,26.80
2022-10-12T18:38:54.491Z,26.70
2022-10-12T18:41:24.373Z,26.70
2022-10-12T18:43:59.061Z,26.70
2022-10-12T18:46:29.675Z,26.60
2022-10-12T18:48:58.275Z,26.60
2022-10-12T18:51:29.707Z,26.60
2022-10-12T18:54:00.280Z,26.60
2022-10-12T18:56:29.332Z,26.60
2022-10-12T18:58:58.618Z,26.50
2022-10-12T19:01:28.796Z,26.50
2022-10-12T19:03:58.671Z,26.50
2022-10-12T19:06:30.287Z,26.50
2022-10-12T19:08:59.300Z,26.50
2022-10-12T19:11:28.336Z,26.40
2022-10-12T19:14:03.720Z,26.40
2022-10-12T19:16:32.495Z,26.40
2022-10-12T19:19:02.719Z,26.40
2022-10-12T19:21:31.308Z,26.40
2022-10-12T19:24:03.140Z,26.40
2022-10-12T19:26:31.992Z,26.40
2022-10-12T19:29:00.544Z,26.30
2022-10-12T19:31:40.280Z,26.30
2022-10-12T19:34:10.971Z,26.30
2022-10-12T19:36:40.001Z,26.30
2022-10-12T19:39:14.353Z,26.30
2022-10-12T19:41:42.547Z,26.30
2022-10-12T19:44:12.342Z,26.30
2022-10-12T19:46:42.413Z,26.20
2022-10-12T19:49:13.192Z,26.20
2022-10-12T19:51:41.510Z,26.20
2022-10-12T19:54:12.626Z,26.20
2022-10-12T19:56:40.998Z,26.10
2022-10-12T19:59:09.184Z,26.10
2022-10-12T20:01:38.813Z,26.20
2022-10-12T20:04:08.605Z,26.20
2022-10-12T20:06:37.663Z,26.10
2022-10-12T20:09:07.102Z,26.20
2022-10-12T20:11:35.468Z,26.20
2022-10-12T20:14:03.801Z,26.20
2022-10-12T20:16:35.022Z,26.20
2022-10-12T20:19:05.732Z,26.20
2022-10-12T20:21:33.910Z,26.10
2022-10-12T20:24:01.967Z,26.20
2022-10-12T20:26:30.286Z,26.10
2022-10-12T20:28:58.516Z,26.10
2022-10-12T20:31:26.751Z,26.10
2022-10-12T20:33:56.091Z,26.10
2022-10-12T20:36:29.537Z,26.10
2022-10-12T20:38:59.144Z,26.10
2022-10-12T20:41:27.835Z,26.10
2022-10-12T20:44:00.397Z,26.00
2022-10-12T20:46:29.773Z,26.00
2022-10-12T20:49:01.080Z,26.00
2022-10-12T20:51:33.922Z,26.00
2022-10-12T20:54:03.167Z,26.00
2022-10-12T20:56:33.454Z,26.00
2022-10-12T20:59:02.380Z,26.00
2022-10-12T21:01:30.542Z,26.00
2022-10-12T21:03:59.161Z,26.00
2022-10-12T21:06:27.644Z,25.90
2022-10-12T21:08:57.668Z,25.90
2022-10-12T21:11:26.313Z,25.90
2022-10-12T21:13:55.731Z,25.90
2022-10-12T21:16:25.160Z,25.90
2022-10-12T21:18:56.780Z,25.90
2022-10-12T21:21:25.300Z,25.90
2022-10-12T21:23:59.306Z,25.90
2022-10-12T21:26:30.294Z,25.90
2022-10-12T21:29:00.038Z,25.90
2022-10-12T21:31:32.279Z,25.80
2022-10-12T21:34:03.077Z,25.80
2022-10-12T21:36:32.703Z,25.80
2022-10-12T21:39:01.605Z,25.80
2022-10-12T21:41:30.960Z,25.70
2022-10-12T21:43:59.578Z,25.70
2022-10-12T21:46:32.946Z,25.70
2022-10-12T21:49:02.059Z,25.70
2022-10-12T21:51:31.909Z,25.70
2022-10-12T21:54:00.362Z,25.70
2022-10-12T21:56:33.205Z,25.70
2022-10-12T21:59:03.671Z,25.70
2022-10-12T22:01:34.973Z,25.70
2022-10-12T22:04:06.413Z,25.60
2022-10-12T22:06:35.178Z,25.60
2022-10-12T22:09:09.273Z,25.60
2022-10-12T22:11:38.597Z,25.60
2022-10-12T22:14:14.361Z,25.60
2022-10-12T22:16:43.394Z,25.60
2022-10-12T22:19:14.158Z,25.60
2022-10-12T22:21:42.666Z,25.60
2022-10-12T22:24:10.893Z,25.50
2022-10-12T22:26:39.115Z,25.60
2022-10-12T22:29:08.480Z,25.50
2022-10-12T22:31:39.232Z,25.40
2022-10-12T22:34:08.832Z,25.40
2022-10-12T22:36:37.489Z,25.50
2022-10-12T22:39:07.510Z,25.40
2022-10-12T22:41:35.573Z,25.40
2022-10-12T22:44:03.841Z,25.40
2022-10-12T22:46:32.021Z,25.30
2022-10-12T22:49:00.169Z,25.30
2022-10-12T22:51:35.457Z,25.30
2022-10-12T22:54:03.945Z,25.30
2022-10-12T22:56:32.602Z,25.30
2022-10-12T22:59:03.573Z,25.30
2022-10-12T23:01:31.837Z,25.30
2022-10-12T23:04:00.515Z,25.30
2022-10-12T23:06:28.968Z,25.30
2022-10-12T23:08:57.470Z,25.30
2022-10-12T23:11:28.080Z,25.30
2022-10-12T23:13:57.985Z,25.30
2022-10-12T23:16:31.715Z,25.30
2022-10-12T23:19:02.434Z,25.20
2022-10-12T23:21:32.728Z,25.30
2022-10-12T23:24:02.435Z,25.30
2022-10-12T23:26:30.653Z,25.20
2022-10-12T23:28:59.416Z,25.20
2022-10-12T23:31:30.100Z,25.10
2022-10-12T23:33:59.080Z,25.20
2022-10-12T23:36:28.293Z,25.10
2022-10-12T23:38:56.407Z,25.10
2022-10-12T23:41:24.564Z,25.10
2022-10-12T23:43:52.754Z,25.10
2022-10-12T23:46:21.139Z,25.10
2022-10-12T23:48:49.440Z,25.00
2022-10-12T23:51:17.505Z,25.10
2022-10-12T23:53:45.778Z,25.10
2022-10-12T23:56:14.119Z,25.10
2022-10-12T23:58:42.286Z,25.00
